sensor_id;sensor_type;location;lat;lon;timestamp;P1;durP1;ratioP1;P2;durP2;ratioP2
1020;SDS011;499;42.648;23.270;2023-07-13T00:00:21;1.80;;;1.00;;
1020;SDS011;499;42.648;23.270;2023-07-13T00:02:48;2.27;;;1.40;;
1020;SDS011;499;42.648;23.270;2023-07-13T00:05:18;1.60;;;1.13;;
1020;SDS011;499;42.648;23.270;2023-07-13T00:07:45;1.83;;;1.07;;
1020;SDS011;499;42.648;23.270;2023-07-13T00:10:13;1.90;;;1.13;;
1020;SDS011;499;42.648;23.270;2023-07-13T00:12:41;2.80;;;1.50;;
1020;SDS011;499;42.648;23.270;2023-07-13T00:15:10;1.97;;;1.23;;
1020;SDS011;499;42.648;23.270;2023-07-13T00:17:42;1.97;;;1.20;;
1020;SDS011;499;42.648;23.270;2023-07-13T00:20:11;2.17;;;1.20;;
1020;SDS011;499;42.648;23.270;2023-07-13T00:22:38;1.77;;;1.20;;
1020;SDS011;499;42.648;23.270;2023-07-13T00:25:05;2.17;;;1.37;;
1020;SDS011;499;42.648;23.270;2023-07-13T00:27:33;1.60;;;1.10;;
1020;SDS011;499;42.648;23.270;2023-07-13T00:30:00;1.90;;;1.30;;
1020;SDS011;499;42.648;23.270;2023-07-13T00:32:27;1.87;;;1.10;;
1020;SDS011;499;42.648;23.270;2023-07-13T00:34:57;2.43;;;1.13;;
1020;SDS011;499;42.648;23.270;2023-07-13T00:37:25;2.30;;;1.50;;
1020;SDS011;499;42.648;23.270;2023-07-13T00:39:52;2.83;;;1.43;;
1020;SDS011;499;42.648;23.270;2023-07-13T00:42:20;1.63;;;1.17;;
1020;SDS011;499;42.648;23.270;2023-07-13T00:45:06;2.30;;;1.80;;
1020;SDS011;499;42.648;23.270;2023-07-13T00:47:55;1.93;;;1.67;;
1020;SDS011;499;42.648;23.270;2023-07-13T00:50:25;2.80;;;1.47;;
1020;SDS011;499;42.648;23.270;2023-07-13T00:52:53;2.40;;;2.00;;
1020;SDS011;499;42.648;23.270;2023-07-13T00:55:23;2.13;;;1.67;;
1020;SDS011;499;42.648;23.270;2023-07-13T00:57:50;2.43;;;1.57;;
1020;SDS011;499;42.648;23.270;2023-07-13T01:00:18;3.33;;;1.50;;
1020;SDS011;499;42.648;23.270;2023-07-13T01:02:48;2.23;;;1.57;;
1020;SDS011;499;42.648;23.270;2023-07-13T01:05:17;1.70;;;1.23;;
1020;SDS011;499;42.648;23.270;2023-07-13T01:07:47;2.80;;;1.43;;
1020;SDS011;499;42.648;23.270;2023-07-13T01:10:17;2.80;;;1.63;;
1020;SDS011;499;42.648;23.270;2023-07-13T01:12:47;2.90;;;1.30;;
1020;SDS011;499;42.648;23.270;2023-07-13T01:15:34;2.20;;;1.40;;
1020;SDS011;499;42.648;23.270;2023-07-13T01:18:03;2.20;;;1.57;;
1020;SDS011;499;42.648;23.270;2023-07-13T01:20:31;2.10;;;1.20;;
1020;SDS011;499;42.648;23.270;2023-07-13T01:23:03;2.97;;;1.97;;
1020;SDS011;499;42.648;23.270;2023-07-13T01:25:31;2.13;;;1.50;;
1020;SDS011;499;42.648;23.270;2023-07-13T01:27:58;1.70;;;1.23;;
1020;SDS011;499;42.648;23.270;2023-07-13T01:30:25;3.47;;;1.73;;
1020;SDS011;499;42.648;23.270;2023-07-13T01:32:53;2.70;;;1.73;;
1020;SDS011;499;42.648;23.270;2023-07-13T01:35:20;1.90;;;1.37;;
1020;SDS011;499;42.648;23.270;2023-07-13T01:37:48;2.00;;;1.60;;
1020;SDS011;499;42.648;23.270;2023-07-13T01:40:17;2.57;;;1.83;;
1020;SDS011;499;42.648;23.270;2023-07-13T01:42:44;3.40;;;2.30;;
1020;SDS011;499;42.648;23.270;2023-07-13T01:45:12;1.97;;;1.43;;
1020;SDS011;499;42.648;23.270;2023-07-13T01:47:40;1.70;;;1.13;;
1020;SDS011;499;42.648;23.270;2023-07-13T01:50:07;3.03;;;1.90;;
1020;SDS011;499;42.648;23.270;2023-07-13T01:52:35;2.10;;;1.70;;
1020;SDS011;499;42.648;23.270;2023-07-13T01:55:02;2.67;;;1.80;;
1020;SDS011;499;42.648;23.270;2023-07-13T01:57:32;2.57;;;1.63;;
1020;SDS011;499;42.648;23.270;2023-07-13T02:00:02;1.80;;;1.40;;
1020;SDS011;499;42.648;23.270;2023-07-13T02:02:30;2.33;;;2.10;;
1020;SDS011;499;42.648;23.270;2023-07-13T02:04:58;3.23;;;2.80;;
1020;SDS011;499;42.648;23.270;2023-07-13T02:07:25;2.80;;;1.70;;
1020;SDS011;499;42.648;23.270;2023-07-13T02:09:53;2.20;;;1.57;;
1020;SDS011;499;42.648;23.270;2023-07-13T02:12:20;1.77;;;1.13;;
1020;SDS011;499;42.648;23.270;2023-07-13T02:14:48;2.30;;;1.50;;
1020;SDS011;499;42.648;23.270;2023-07-13T02:17:15;2.73;;;1.97;;
1020;SDS011;499;42.648;23.270;2023-07-13T02:19:42;2.30;;;1.20;;
1020;SDS011;499;42.648;23.270;2023-07-13T02:22:09;4.20;;;2.07;;
1020;SDS011;499;42.648;23.270;2023-07-13T02:24:37;2.93;;;1.80;;
1020;SDS011;499;42.648;23.270;2023-07-13T02:27:04;3.00;;;1.87;;
1020;SDS011;499;42.648;23.270;2023-07-13T02:29:32;2.23;;;2.03;;
1020;SDS011;499;42.648;23.270;2023-07-13T02:32:00;2.30;;;1.47;;
1020;SDS011;499;42.648;23.270;2023-07-13T02:34:28;2.20;;;1.50;;
1020;SDS011;499;42.648;23.270;2023-07-13T02:36:55;3.10;;;2.00;;
1020;SDS011;499;42.648;23.270;2023-07-13T02:39:22;2.20;;;1.70;;
1020;SDS011;499;42.648;23.270;2023-07-13T02:41:49;3.50;;;2.60;;
1020;SDS011;499;42.648;23.270;2023-07-13T02:44:16;2.33;;;1.77;;
1020;SDS011;499;42.648;23.270;2023-07-13T02:46:43;2.20;;;1.67;;
1020;SDS011;499;42.648;23.270;2023-07-13T02:49:12;2.60;;;2.20;;
1020;SDS011;499;42.648;23.270;2023-07-13T02:51:40;2.40;;;1.80;;
1020;SDS011;499;42.648;23.270;2023-07-13T02:54:07;2.33;;;1.60;;
1020;SDS011;499;42.648;23.270;2023-07-13T02:56:34;1.93;;;1.73;;
1020;SDS011;499;42.648;23.270;2023-07-13T02:59:00;1.63;;;1.13;;
1020;SDS011;499;42.648;23.270;2023-07-13T03:01:28;2.83;;;1.87;;
1020;SDS011;499;42.648;23.270;2023-07-13T03:03:55;2.40;;;1.73;;
1020;SDS011;499;42.648;23.270;2023-07-13T03:06:23;2.50;;;2.00;;
1020;SDS011;499;42.648;23.270;2023-07-13T03:08:50;2.50;;;2.00;;
1020;SDS011;499;42.648;23.270;2023-07-13T03:11:19;2.60;;;1.70;;
1020;SDS011;499;42.648;23.270;2023-07-13T03:13:46;2.30;;;1.83;;
1020;SDS011;499;42.648;23.270;2023-07-13T03:16:14;2.50;;;2.00;;
1020;SDS011;499;42.648;23.270;2023-07-13T03:18:42;2.33;;;1.87;;
1020;SDS011;499;42.648;23.270;2023-07-13T03:21:09;3.97;;;2.17;;
1020;SDS011;499;42.648;23.270;2023-07-13T03:23:37;2.00;;;1.63;;
1020;SDS011;499;42.648;23.270;2023-07-13T03:26:05;1.87;;;1.50;;
1020;SDS011;499;42.648;23.270;2023-07-13T03:28:34;3.03;;;1.70;;
1020;SDS011;499;42.648;23.270;2023-07-13T03:31:01;2.37;;;1.87;;
1020;SDS011;499;42.648;23.270;2023-07-13T03:33:31;2.73;;;1.70;;
1020;SDS011;499;42.648;23.270;2023-07-13T03:35:58;2.13;;;1.57;;
1020;SDS011;499;42.648;23.270;2023-07-13T03:38:26;3.10;;;2.10;;
1020;SDS011;499;42.648;23.270;2023-07-13T03:40:55;2.73;;;1.70;;
1020;SDS011;499;42.648;23.270;2023-07-13T03:43:22;2.83;;;1.70;;
1020;SDS011;499;42.648;23.270;2023-07-13T03:45:49;2.27;;;1.47;;
1020;SDS011;499;42.648;23.270;2023-07-13T03:48:16;2.17;;;1.70;;
1020;SDS011;499;42.648;23.270;2023-07-13T03:50:43;3.13;;;1.70;;
1020;SDS011;499;42.648;23.270;2023-07-13T03:53:10;2.63;;;1.60;;
1020;SDS011;499;42.648;23.270;2023-07-13T03:55:38;3.50;;;1.63;;
1020;SDS011;499;42.648;23.270;2023-07-13T04:00:58;2.30;;;1.67;;
1020;SDS011;499;42.648;23.270;2023-07-13T04:03:27;2.80;;;2.27;;
1020;SDS011;499;42.648;23.270;2023-07-13T04:05:55;3.47;;;2.53;;
1020;SDS011;499;42.648;23.270;2023-07-13T04:08:25;3.13;;;2.00;;
1020;SDS011;499;42.648;23.270;2023-07-13T04:10:53;2.70;;;2.17;;
1020;SDS011;499;42.648;23.270;2023-07-13T04:13:21;2.67;;;2.00;;
1020;SDS011;499;42.648;23.270;2023-07-13T04:15:50;2.47;;;1.93;;
1020;SDS011;499;42.648;23.270;2023-07-13T04:18:17;2.23;;;1.90;;
1020;SDS011;499;42.648;23.270;2023-07-13T04:20:45;3.87;;;2.47;;
1020;SDS011;499;42.648;23.270;2023-07-13T04:23:13;2.40;;;1.63;;
1020;SDS011;499;42.648;23.270;2023-07-13T04:25:43;2.40;;;2.13;;
1020;SDS011;499;42.648;23.270;2023-07-13T04:28:10;2.30;;;1.63;;
1020;SDS011;499;42.648;23.270;2023-07-13T04:30:37;2.60;;;2.13;;
1020;SDS011;499;42.648;23.270;2023-07-13T04:33:06;3.50;;;2.47;;
1020;SDS011;499;42.648;23.270;2023-07-13T04:35:34;2.90;;;2.03;;
1020;SDS011;499;42.648;23.270;2023-07-13T04:38:01;2.80;;;1.90;;
1020;SDS011;499;42.648;23.270;2023-07-13T04:40:28;2.20;;;1.70;;
1020;SDS011;499;42.648;23.270;2023-07-13T04:42:56;4.60;;;2.37;;
1020;SDS011;499;42.648;23.270;2023-07-13T04:45:23;2.10;;;1.90;;
1020;SDS011;499;42.648;23.270;2023-07-13T04:47:51;2.20;;;1.93;;
1020;SDS011;499;42.648;23.270;2023-07-13T04:50:20;2.47;;;1.90;;
1020;SDS011;499;42.648;23.270;2023-07-13T04:52:48;3.30;;;2.27;;
1020;SDS011;499;42.648;23.270;2023-07-13T04:55:16;3.10;;;1.67;;
1020;SDS011;499;42.648;23.270;2023-07-13T04:57:43;3.00;;;2.13;;
1020;SDS011;499;42.648;23.270;2023-07-13T05:00:11;2.53;;;1.83;;
1020;SDS011;499;42.648;23.270;2023-07-13T05:02:42;3.90;;;3.00;;
1020;SDS011;499;42.648;23.270;2023-07-13T05:05:11;2.63;;;2.00;;
1020;SDS011;499;42.648;23.270;2023-07-13T05:07:40;2.70;;;2.07;;
1020;SDS011;499;42.648;23.270;2023-07-13T05:10:09;3.70;;;2.33;;
1020;SDS011;499;42.648;23.270;2023-07-13T05:12:36;4.00;;;2.57;;
1020;SDS011;499;42.648;23.270;2023-07-13T05:15:03;2.53;;;2.07;;
1020;SDS011;499;42.648;23.270;2023-07-13T05:17:31;4.30;;;2.70;;
1020;SDS011;499;42.648;23.270;2023-07-13T05:19:58;4.20;;;2.50;;
1020;SDS011;499;42.648;23.270;2023-07-13T05:22:26;3.73;;;2.10;;
1020;SDS011;499;42.648;23.270;2023-07-13T05:24:55;3.07;;;2.17;;
1020;SDS011;499;42.648;23.270;2023-07-13T05:27:23;3.40;;;2.83;;
1020;SDS011;499;42.648;23.270;2023-07-13T05:29:50;3.47;;;2.70;;
1020;SDS011;499;42.648;23.270;2023-07-13T05:32:17;3.70;;;2.93;;
1020;SDS011;499;42.648;23.270;2023-07-13T05:34:45;2.33;;;1.93;;
1020;SDS011;499;42.648;23.270;2023-07-13T05:37:12;3.83;;;2.70;;
1020;SDS011;499;42.648;23.270;2023-07-13T05:39:39;3.23;;;2.87;;
1020;SDS011;499;42.648;23.270;2023-07-13T05:42:07;3.77;;;2.80;;
1020;SDS011;499;42.648;23.270;2023-07-13T05:44:35;3.70;;;2.47;;
1020;SDS011;499;42.648;23.270;2023-07-13T05:47:01;3.90;;;2.97;;
1020;SDS011;499;42.648;23.270;2023-07-13T05:49:29;4.73;;;2.47;;
1020;SDS011;499;42.648;23.270;2023-07-13T05:51:56;2.97;;;2.57;;
1020;SDS011;499;42.648;23.270;2023-07-13T05:54:23;4.03;;;2.47;;
1020;SDS011;499;42.648;23.270;2023-07-13T05:56:50;3.80;;;3.07;;
1020;SDS011;499;42.648;23.270;2023-07-13T05:59:19;3.07;;;2.73;;
1020;SDS011;499;42.648;23.270;2023-07-13T06:01:46;4.53;;;2.73;;
1020;SDS011;499;42.648;23.270;2023-07-13T06:04:13;4.40;;;3.17;;
1020;SDS011;499;42.648;23.270;2023-07-13T06:06:41;2.73;;;2.23;;
1020;SDS011;499;42.648;23.270;2023-07-13T06:09:09;3.10;;;2.57;;
1020;SDS011;499;42.648;23.270;2023-07-13T06:11:36;4.13;;;3.67;;
1020;SDS011;499;42.648;23.270;2023-07-13T06:14:03;5.73;;;2.50;;
1020;SDS011;499;42.648;23.270;2023-07-13T06:16:32;4.20;;;2.97;;
1020;SDS011;499;42.648;23.270;2023-07-13T06:19:00;3.63;;;3.07;;
1020;SDS011;499;42.648;23.270;2023-07-13T06:21:27;4.60;;;3.30;;
1020;SDS011;499;42.648;23.270;2023-07-13T06:23:54;3.70;;;2.70;;
1020;SDS011;499;42.648;23.270;2023-07-13T06:26:21;3.60;;;3.00;;
1020;SDS011;499;42.648;23.270;2023-07-13T06:28:50;3.47;;;2.73;;
1020;SDS011;499;42.648;23.270;2023-07-13T06:31:17;3.53;;;2.70;;
1020;SDS011;499;42.648;23.270;2023-07-13T06:33:45;3.70;;;2.77;;
1020;SDS011;499;42.648;23.270;2023-07-13T06:36:12;4.00;;;3.40;;
1020;SDS011;499;42.648;23.270;2023-07-13T06:38:39;4.40;;;2.60;;
1020;SDS011;499;42.648;23.270;2023-07-13T06:41:07;3.43;;;2.73;;
1020;SDS011;499;42.648;23.270;2023-07-13T06:43:34;3.80;;;3.30;;
1020;SDS011;499;42.648;23.270;2023-07-13T06:46:01;4.57;;;2.93;;
1020;SDS011;499;42.648;23.270;2023-07-13T06:48:29;4.07;;;3.33;;
1020;SDS011;499;42.648;23.270;2023-07-13T06:50:58;4.17;;;2.20;;
1020;SDS011;499;42.648;23.270;2023-07-13T06:53:25;2.53;;;2.10;;
1020;SDS011;499;42.648;23.270;2023-07-13T06:55:52;4.27;;;3.23;;
1020;SDS011;499;42.648;23.270;2023-07-13T06:58:19;3.87;;;2.40;;
1020;SDS011;499;42.648;23.270;2023-07-13T07:00:49;2.70;;;2.20;;
1020;SDS011;499;42.648;23.270;2023-07-13T07:03:18;3.43;;;2.13;;
1020;SDS011;499;42.648;23.270;2023-07-13T07:05:45;4.63;;;3.27;;
1020;SDS011;499;42.648;23.270;2023-07-13T07:08:14;4.43;;;3.00;;
1020;SDS011;499;42.648;23.270;2023-07-13T07:10:41;2.53;;;2.00;;
1020;SDS011;499;42.648;23.270;2023-07-13T07:13:08;3.83;;;2.50;;
1020;SDS011;499;42.648;23.270;2023-07-13T07:15:36;4.97;;;3.50;;
1020;SDS011;499;42.648;23.270;2023-07-13T07:18:03;2.87;;;2.40;;
1020;SDS011;499;42.648;23.270;2023-07-13T07:20:30;3.70;;;2.40;;
1020;SDS011;499;42.648;23.270;2023-07-13T07:22:58;3.33;;;2.40;;
1020;SDS011;499;42.648;23.270;2023-07-13T07:25:27;3.57;;;2.80;;
1020;SDS011;499;42.648;23.270;2023-07-13T07:27:57;4.10;;;3.00;;
1020;SDS011;499;42.648;23.270;2023-07-13T07:30:24;3.40;;;2.30;;
1020;SDS011;499;42.648;23.270;2023-07-13T07:32:51;4.87;;;3.10;;
1020;SDS011;499;42.648;23.270;2023-07-13T07:35:18;3.50;;;2.37;;
1020;SDS011;499;42.648;23.270;2023-07-13T07:37:46;4.37;;;3.40;;
1020;SDS011;499;42.648;23.270;2023-07-13T07:40:14;4.17;;;2.80;;
1020;SDS011;499;42.648;23.270;2023-07-13T07:42:42;4.53;;;3.30;;
1020;SDS011;499;42.648;23.270;2023-07-13T07:45:09;5.20;;;3.10;;
1020;SDS011;499;42.648;23.270;2023-07-13T07:47:37;4.80;;;3.50;;
1020;SDS011;499;42.648;23.270;2023-07-13T07:50:04;3.33;;;2.40;;
1020;SDS011;499;42.648;23.270;2023-07-13T07:52:32;2.80;;;2.50;;
1020;SDS011;499;42.648;23.270;2023-07-13T07:55:00;4.97;;;2.77;;
1020;SDS011;499;42.648;23.270;2023-07-13T07:57:28;2.80;;;2.20;;
1020;SDS011;499;42.648;23.270;2023-07-13T07:59:56;3.13;;;2.43;;
1020;SDS011;499;42.648;23.270;2023-07-13T08:02:23;4.13;;;3.17;;
1020;SDS011;499;42.648;23.270;2023-07-13T08:04:51;4.20;;;3.80;;
1020;SDS011;499;42.648;23.270;2023-07-13T08:07:19;3.77;;;2.80;;
1020;SDS011;499;42.648;23.270;2023-07-13T08:09:46;2.97;;;1.97;;
1020;SDS011;499;42.648;23.270;2023-07-13T08:12:17;3.90;;;2.80;;
1020;SDS011;499;42.648;23.270;2023-07-13T08:14:44;4.10;;;2.47;;
1020;SDS011;499;42.648;23.270;2023-07-13T08:17:13;4.07;;;3.03;;
1020;SDS011;499;42.648;23.270;2023-07-13T08:19:40;4.10;;;2.50;;
1020;SDS011;499;42.648;23.270;2023-07-13T08:22:07;3.23;;;2.33;;
1020;SDS011;499;42.648;23.270;2023-07-13T08:24:34;3.60;;;2.53;;
1020;SDS011;499;42.648;23.270;2023-07-13T08:27:03;3.03;;;2.30;;
1020;SDS011;499;42.648;23.270;2023-07-13T08:29:30;4.60;;;3.00;;
1020;SDS011;499;42.648;23.270;2023-07-13T08:31:58;2.63;;;2.03;;
1020;SDS011;499;42.648;23.270;2023-07-13T08:34:27;3.23;;;2.50;;
1020;SDS011;499;42.648;23.270;2023-07-13T08:36:54;6.73;;;2.60;;
1020;SDS011;499;42.648;23.270;2023-07-13T08:39:23;3.00;;;2.10;;
1020;SDS011;499;42.648;23.270;2023-07-13T08:41:54;3.83;;;2.73;;
1020;SDS011;499;42.648;23.270;2023-07-13T08:44:27;3.80;;;2.47;;
1020;SDS011;499;42.648;23.270;2023-07-13T08:47:01;3.40;;;2.73;;
1020;SDS011;499;42.648;23.270;2023-07-13T08:49:30;2.63;;;2.40;;
1020;SDS011;499;42.648;23.270;2023-07-13T08:52:01;3.47;;;2.30;;
1020;SDS011;499;42.648;23.270;2023-07-13T08:54:34;2.60;;;2.00;;
1020;SDS011;499;42.648;23.270;2023-07-13T08:57:09;3.80;;;2.90;;
1020;SDS011;499;42.648;23.270;2023-07-13T08:59:40;3.27;;;2.70;;
1020;SDS011;499;42.648;23.270;2023-07-13T09:02:17;4.50;;;3.57;;
1020;SDS011;499;42.648;23.270;2023-07-13T09:04:54;3.60;;;2.57;;
1020;SDS011;499;42.648;23.270;2023-07-13T09:07:38;4.73;;;2.30;;
1020;SDS011;499;42.648;23.270;2023-07-13T09:10:14;3.70;;;2.60;;
1020;SDS011;499;42.648;23.270;2023-07-13T09:12:45;3.10;;;2.50;;
1020;SDS011;499;42.648;23.270;2023-07-13T09:15:29;3.10;;;2.80;;
1020;SDS011;499;42.648;23.270;2023-07-13T09:17:59;2.60;;;2.00;;
1020;SDS011;499;42.648;23.270;2023-07-13T09:20:34;3.60;;;2.27;;
1020;SDS011;499;42.648;23.270;2023-07-13T09:23:04;3.40;;;2.50;;
1020;SDS011;499;42.648;23.270;2023-07-13T09:25:38;2.30;;;1.80;;
1020;SDS011;499;42.648;23.270;2023-07-13T09:28:09;2.60;;;2.07;;
1020;SDS011;499;42.648;23.270;2023-07-13T09:30:40;4.07;;;3.67;;
1020;SDS011;499;42.648;23.270;2023-07-13T09:33:13;3.80;;;2.20;;
1020;SDS011;499;42.648;23.270;2023-07-13T09:35:41;3.03;;;1.80;;
1020;SDS011;499;42.648;23.270;2023-07-13T09:38:12;2.60;;;1.80;;
1020;SDS011;499;42.648;23.270;2023-07-13T09:43:34;3.40;;;3.03;;
1020;SDS011;499;42.648;23.270;2023-07-13T09:46:01;3.20;;;2.70;;
1020;SDS011;499;42.648;23.270;2023-07-13T09:48:33;3.00;;;1.80;;
1020;SDS011;499;42.648;23.270;2023-07-13T09:51:06;2.20;;;1.70;;
1020;SDS011;499;42.648;23.270;2023-07-13T09:53:38;2.90;;;2.23;;
1020;SDS011;499;42.648;23.270;2023-07-13T09:56:12;2.53;;;1.90;;
1020;SDS011;499;42.648;23.270;2023-07-13T09:58:46;1.63;;;1.23;;
1020;SDS011;499;42.648;23.270;2023-07-13T10:01:13;1.60;;;0.87;;
1020;SDS011;499;42.648;23.270;2023-07-13T10:03:51;2.17;;;1.33;;
1020;SDS011;499;42.648;23.270;2023-07-13T10:06:21;2.50;;;1.93;;
1020;SDS011;499;42.648;23.270;2023-07-13T10:08:49;1.47;;;0.90;;
1020;SDS011;499;42.648;23.270;2023-07-13T10:11:18;1.50;;;1.10;;
1020;SDS011;499;42.648;23.270;2023-07-13T10:13:48;1.90;;;1.03;;
1020;SDS011;499;42.648;23.270;2023-07-13T10:16:17;2.10;;;0.90;;
1020;SDS011;499;42.648;23.270;2023-07-13T10:18:46;2.50;;;1.70;;
1020;SDS011;499;42.648;23.270;2023-07-13T10:21:15;1.40;;;0.63;;
1020;SDS011;499;42.648;23.270;2023-07-13T10:23:46;1.87;;;1.67;;
1020;SDS011;499;42.648;23.270;2023-07-13T10:26:16;1.53;;;0.73;;
1020;SDS011;499;42.648;23.270;2023-07-13T10:28:50;3.07;;;1.53;;
1020;SDS011;499;42.648;23.270;2023-07-13T10:31:20;1.97;;;1.50;;
1020;SDS011;499;42.648;23.270;2023-07-13T10:33:48;1.50;;;0.90;;
1020;SDS011;499;42.648;23.270;2023-07-13T10:36:18;1.70;;;1.20;;
1020;SDS011;499;42.648;23.270;2023-07-13T10:38:57;2.40;;;1.40;;
1020;SDS011;499;42.648;23.270;2023-07-13T10:41:26;2.27;;;1.17;;
1020;SDS011;499;42.648;23.270;2023-07-13T10:43:56;2.17;;;1.10;;
1020;SDS011;499;42.648;23.270;2023-07-13T10:46:24;2.10;;;1.33;;
1020;SDS011;499;42.648;23.270;2023-07-13T10:48:54;1.87;;;1.07;;
1020;SDS011;499;42.648;23.270;2023-07-13T10:51:24;3.53;;;1.67;;
1020;SDS011;499;42.648;23.270;2023-07-13T10:54:14;2.13;;;0.93;;
1020;SDS011;499;42.648;23.270;2023-07-13T10:56:48;2.10;;;1.20;;
1020;SDS011;499;42.648;23.270;2023-07-13T10:59:18;2.63;;;1.10;;
1020;SDS011;499;42.648;23.270;2023-07-13T11:01:56;2.00;;;1.40;;
1020;SDS011;499;42.648;23.270;2023-07-13T11:04:24;1.60;;;1.03;;
1020;SDS011;499;42.648;23.270;2023-07-13T11:06:56;2.27;;;1.40;;
1020;SDS011;499;42.648;23.270;2023-07-13T11:09:34;1.80;;;0.93;;
1020;SDS011;499;42.648;23.270;2023-07-13T11:12:26;1.77;;;1.20;;
1020;SDS011;499;42.648;23.270;2023-07-13T11:15:28;2.77;;;1.47;;
1020;SDS011;499;42.648;23.270;2023-07-13T11:18:02;2.57;;;1.50;;
1020;SDS011;499;42.648;23.270;2023-07-13T11:20:37;14.83;;;1.60;;
1020;SDS011;499;42.648;23.270;2023-07-13T11:25:59;1.80;;;1.23;;
1020;SDS011;499;42.648;23.270;2023-07-13T11:28:29;1.63;;;1.23;;
1020;SDS011;499;42.648;23.270;2023-07-13T11:31:01;3.50;;;1.60;;
1020;SDS011;499;42.648;23.270;2023-07-13T11:33:51;1.70;;;1.10;;
1020;SDS011;499;42.648;23.270;2023-07-13T11:36:29;3.93;;;1.53;;
1020;SDS011;499;42.648;23.270;2023-07-13T11:39:03;2.10;;;1.37;;
1020;SDS011;499;42.648;23.270;2023-07-13T11:41:35;2.27;;;1.23;;
1020;SDS011;499;42.648;23.270;2023-07-13T11:44:11;1.93;;;1.70;;
1020;SDS011;499;42.648;23.270;2023-07-13T11:46:44;2.63;;;1.87;;
1020;SDS011;499;42.648;23.270;2023-07-13T11:49:14;1.80;;;1.30;;
1020;SDS011;499;42.648;23.270;2023-07-13T11:51:43;1.60;;;1.00;;
1020;SDS011;499;42.648;23.270;2023-07-13T11:54:15;2.33;;;1.87;;
1020;SDS011;499;42.648;23.270;2023-07-13T11:56:50;3.13;;;1.00;;
1020;SDS011;499;42.648;23.270;2023-07-13T11:59:17;2.60;;;1.03;;
1020;SDS011;499;42.648;23.270;2023-07-13T12:01:47;2.63;;;1.37;;
1020;SDS011;499;42.648;23.270;2023-07-13T12:04:20;2.50;;;1.43;;
1020;SDS011;499;42.648;23.270;2023-07-13T12:06:54;2.00;;;1.17;;
1020;SDS011;499;42.648;23.270;2023-07-13T12:09:25;1.57;;;1.00;;
1020;SDS011;499;42.648;23.270;2023-07-13T12:11:56;1.77;;;1.40;;
1020;SDS011;499;42.648;23.270;2023-07-13T12:14:25;2.37;;;1.43;;
1020;SDS011;499;42.648;23.270;2023-07-13T12:16:52;2.40;;;1.50;;
1020;SDS011;499;42.648;23.270;2023-07-13T12:19:20;1.63;;;1.00;;
1020;SDS011;499;42.648;23.270;2023-07-13T12:21:49;2.40;;;1.27;;
1020;SDS011;499;42.648;23.270;2023-07-13T12:24:20;2.20;;;1.20;;
1020;SDS011;499;42.648;23.270;2023-07-13T12:26:52;1.87;;;1.07;;
1020;SDS011;499;42.648;23.270;2023-07-13T12:29:22;4.73;;;1.27;;
1020;SDS011;499;42.648;23.270;2023-07-13T12:31:49;1.80;;;1.47;;
1020;SDS011;499;42.648;23.270;2023-07-13T12:34:18;2.40;;;1.20;;
1020;SDS011;499;42.648;23.270;2023-07-13T12:36:47;1.50;;;0.90;;
1020;SDS011;499;42.648;23.270;2023-07-13T12:39:17;2.40;;;1.40;;
1020;SDS011;499;42.648;23.270;2023-07-13T12:41:46;1.80;;;0.90;;
1020;SDS011;499;42.648;23.270;2023-07-13T12:44:15;3.07;;;2.10;;
1020;SDS011;499;42.648;23.270;2023-07-13T12:46:53;2.47;;;1.10;;
1020;SDS011;499;42.648;23.270;2023-07-13T12:49:27;1.50;;;0.90;;
1020;SDS011;499;42.648;23.270;2023-07-13T12:51:58;1.70;;;1.00;;
1020;SDS011;499;42.648;23.270;2023-07-13T12:54:26;1.97;;;1.40;;
1020;SDS011;499;42.648;23.270;2023-07-13T12:56:54;1.70;;;1.03;;
1020;SDS011;499;42.648;23.270;2023-07-13T12:59:24;2.90;;;1.83;;
1020;SDS011;499;42.648;23.270;2023-07-13T13:01:57;2.30;;;1.10;;
1020;SDS011;499;42.648;23.270;2023-07-13T13:04:27;4.17;;;1.77;;
1020;SDS011;499;42.648;23.270;2023-07-13T13:07:02;1.80;;;0.93;;
1020;SDS011;499;42.648;23.270;2023-07-13T13:09:34;1.90;;;1.17;;
1020;SDS011;499;42.648;23.270;2023-07-13T13:12:01;1.97;;;1.00;;
1020;SDS011;499;42.648;23.270;2023-07-13T13:14:30;1.50;;;0.83;;
1020;SDS011;499;42.648;23.270;2023-07-13T13:16:59;2.73;;;1.23;;
1020;SDS011;499;42.648;23.270;2023-07-13T13:19:27;1.30;;;0.90;;
1020;SDS011;499;42.648;23.270;2023-07-13T13:21:56;1.90;;;1.23;;
1020;SDS011;499;42.648;23.270;2023-07-13T13:24:25;1.53;;;0.80;;
1020;SDS011;499;42.648;23.270;2023-07-13T13:26:53;2.73;;;1.30;;
1020;SDS011;499;42.648;23.270;2023-07-13T13:29:23;2.13;;;1.37;;
1020;SDS011;499;42.648;23.270;2023-07-13T13:31:51;2.37;;;1.33;;
1020;SDS011;499;42.648;23.270;2023-07-13T13:34:20;4.23;;;1.43;;
1020;SDS011;499;42.648;23.270;2023-07-13T13:36:49;1.30;;;0.67;;
1020;SDS011;499;42.648;23.270;2023-07-13T13:39:20;2.77;;;0.80;;
1020;SDS011;499;42.648;23.270;2023-07-13T13:41:49;1.97;;;1.57;;
1020;SDS011;499;42.648;23.270;2023-07-13T13:44:17;2.03;;;1.27;;
1020;SDS011;499;42.648;23.270;2023-07-13T13:46:45;2.27;;;1.30;;
1020;SDS011;499;42.648;23.270;2023-07-13T13:49:15;1.90;;;0.90;;
1020;SDS011;499;42.648;23.270;2023-07-13T13:51:46;1.30;;;0.60;;
1020;SDS011;499;42.648;23.270;2023-07-13T13:54:13;1.37;;;0.77;;
1020;SDS011;499;42.648;23.270;2023-07-13T13:56:42;1.10;;;0.53;;
1020;SDS011;499;42.648;23.270;2023-07-13T13:59:10;2.10;;;1.43;;
1020;SDS011;499;42.648;23.270;2023-07-13T14:01:37;1.50;;;0.80;;
1020;SDS011;499;42.648;23.270;2023-07-13T14:04:06;2.13;;;1.40;;
1020;SDS011;499;42.648;23.270;2023-07-13T14:06:36;2.20;;;1.17;;
1020;SDS011;499;42.648;23.270;2023-07-13T14:09:07;1.47;;;0.70;;
1020;SDS011;499;42.648;23.270;2023-07-13T14:11:36;1.63;;;1.10;;
1020;SDS011;499;42.648;23.270;2023-07-13T14:14:04;1.77;;;1.03;;
1020;SDS011;499;42.648;23.270;2023-07-13T14:16:31;2.13;;;1.43;;
1020;SDS011;499;42.648;23.270;2023-07-13T14:18:59;1.33;;;0.67;;
1020;SDS011;499;42.648;23.270;2023-07-13T14:21:27;2.40;;;1.40;;
1020;SDS011;499;42.648;23.270;2023-07-13T14:23:55;1.20;;;0.67;;
1020;SDS011;499;42.648;23.270;2023-07-13T14:26:25;2.27;;;1.40;;
1020;SDS011;499;42.648;23.270;2023-07-13T14:28:53;2.23;;;1.20;;
1020;SDS011;499;42.648;23.270;2023-07-13T14:31:23;1.70;;;1.23;;
1020;SDS011;499;42.648;23.270;2023-07-13T14:33:53;2.93;;;1.37;;
1020;SDS011;499;42.648;23.270;2023-07-13T14:36:23;2.00;;;0.90;;
1020;SDS011;499;42.648;23.270;2023-07-13T14:38:54;2.10;;;1.40;;
1020;SDS011;499;42.648;23.270;2023-07-13T14:41:22;1.63;;;1.10;;
1020;SDS011;499;42.648;23.270;2023-07-13T14:43:51;1.83;;;0.80;;
1020;SDS011;499;42.648;23.270;2023-07-13T14:46:22;2.30;;;0.80;;
1020;SDS011;499;42.648;23.270;2023-07-13T14:48:55;2.27;;;1.77;;
1020;SDS011;499;42.648;23.270;2023-07-13T14:51:27;2.00;;;1.43;;
1020;SDS011;499;42.648;23.270;2023-07-13T14:53:54;2.03;;;1.40;;
1020;SDS011;499;42.648;23.270;2023-07-13T14:56:22;1.80;;;1.10;;
1020;SDS011;499;42.648;23.270;2023-07-13T14:58:49;2.00;;;1.10;;
1020;SDS011;499;42.648;23.270;2023-07-13T15:01:18;2.57;;;1.57;;
1020;SDS011;499;42.648;23.270;2023-07-13T15:03:47;1.80;;;1.00;;
1020;SDS011;499;42.648;23.270;2023-07-13T15:06:16;4.10;;;1.00;;
1020;SDS011;499;42.648;23.270;2023-07-13T15:08:45;2.57;;;1.47;;
1020;SDS011;499;42.648;23.270;2023-07-13T15:11:13;2.80;;;0.97;;
1020;SDS011;499;42.648;23.270;2023-07-13T15:13:42;1.67;;;0.90;;
1020;SDS011;499;42.648;23.270;2023-07-13T15:16:15;3.50;;;0.90;;
1020;SDS011;499;42.648;23.270;2023-07-13T15:18:44;1.50;;;0.93;;
1020;SDS011;499;42.648;23.270;2023-07-13T15:21:14;1.73;;;1.10;;
1020;SDS011;499;42.648;23.270;2023-07-13T15:23:45;2.20;;;1.17;;
1020;SDS011;499;42.648;23.270;2023-07-13T15:26:12;1.63;;;1.33;;
1020;SDS011;499;42.648;23.270;2023-07-13T15:28:40;1.77;;;0.90;;
1020;SDS011;499;42.648;23.270;2023-07-13T15:31:18;1.53;;;0.83;;
1020;SDS011;499;42.648;23.270;2023-07-13T15:33:47;1.90;;;1.00;;
1020;SDS011;499;42.648;23.270;2023-07-13T15:36:15;3.60;;;1.37;;